sensor_id;sensor_type;location;lat;lon;timestamp;P1;durP1;ratioP1;P2;durP2;ratioP2
31182;SDS011;17813;0.000;0.000;2023-08-06T00:01:25;3.87;;;3.57;;
31182;SDS011;17813;0.000;0.000;2023-08-06T00:03:57;3.97;;;3.57;;
31182;SDS011;17813;0.000;0.000;2023-08-06T00:06:28;4.13;;;3.70;;
31182;SDS011;17813;0.000;0.000;2023-08-06T00:09:03;4.80;;;3.50;;
31182;SDS011;17813;0.000;0.000;2023-08-06T00:11:33;4.93;;;3.60;;
31182;SDS011;17813;0.000;0.000;2023-08-06T00:14:09;5.53;;;3.87;;
31182;SDS011;17813;0.000;0.000;2023-08-06T00:16:44;6.93;;;3.80;;
31182;SDS011;17813;0.000;0.000;2023-08-06T00:19:14;6.07;;;4.30;;
31182;SDS011;17813;0.000;0.000;2023-08-06T00:21:43;4.83;;;4.30;;
31182;SDS011;17813;0.000;0.000;2023-08-06T00:24:18;4.57;;;4.17;;
31182;SDS011;17813;0.000;0.000;2023-08-06T00:26:51;5.40;;;4.00;;
31182;SDS011;17813;0.000;0.000;2023-08-06T00:29:22;4.20;;;3.90;;
31182;SDS011;17813;0.000;0.000;2023-08-06T00:31:54;5.43;;;4.00;;
31182;SDS011;17813;0.000;0.000;2023-08-06T00:34:22;3.53;;;3.23;;
31182;SDS011;17813;0.000;0.000;2023-08-06T00:36:52;3.70;;;2.80;;
31182;SDS011;17813;0.000;0.000;2023-08-06T00:39:26;3.00;;;2.80;;
31182;SDS011;17813;0.000;0.000;2023-08-06T00:41:57;2.73;;;2.30;;
31182;SDS011;17813;0.000;0.000;2023-08-06T00:44:29;2.40;;;2.20;;
31182;SDS011;17813;0.000;0.000;2023-08-06T00:47:01;2.20;;;2.00;;
31182;SDS011;17813;0.000;0.000;2023-08-06T00:49:34;3.20;;;2.20;;
31182;SDS011;17813;0.000;0.000;2023-08-06T00:52:08;1.90;;;1.80;;
31182;SDS011;17813;0.000;0.000;2023-08-06T00:54:37;2.03;;;1.80;;
31182;SDS011;17813;0.000;0.000;2023-08-06T00:57:07;1.83;;;1.70;;
31182;SDS011;17813;0.000;0.000;2023-08-06T00:59:38;1.80;;;1.70;;
31182;SDS011;17813;0.000;0.000;2023-08-06T01:02:09;1.87;;;1.50;;
31182;SDS011;17813;0.000;0.000;2023-08-06T01:04:39;1.90;;;1.70;;
31182;SDS011;17813;0.000;0.000;2023-08-06T01:13:54;1.50;;;1.40;;
31182;SDS011;17813;0.000;0.000;2023-08-06T01:16:06;1.60;;;1.50;;
31182;SDS011;17813;0.000;0.000;2023-08-06T01:18:37;1.70;;;1.60;;
31182;SDS011;17813;0.000;0.000;2023-08-06T01:21:07;3.27;;;1.40;;
31182;SDS011;17813;0.000;0.000;2023-08-06T01:23:36;1.60;;;1.50;;
31182;SDS011;17813;0.000;0.000;2023-08-06T01:26:11;1.40;;;1.30;;
31182;SDS011;17813;0.000;0.000;2023-08-06T01:29:23;1.60;;;1.50;;
31182;SDS011;17813;0.000;0.000;2023-08-06T01:31:55;1.70;;;1.60;;
31182;SDS011;17813;0.000;0.000;2023-08-06T01:34:25;1.40;;;1.30;;
31182;SDS011;17813;0.000;0.000;2023-08-06T01:37:00;1.50;;;1.40;;
31182;SDS011;17813;0.000;0.000;2023-08-06T01:39:35;1.57;;;1.47;;
31182;SDS011;17813;0.000;0.000;2023-08-06T01:42:04;1.87;;;1.47;;
31182;SDS011;17813;0.000;0.000;2023-08-06T01:44:36;1.93;;;1.60;;
31182;SDS011;17813;0.000;0.000;2023-08-06T01:47:07;1.60;;;1.50;;
31182;SDS011;17813;0.000;0.000;2023-08-06T01:49:39;1.60;;;1.50;;
31182;SDS011;17813;0.000;0.000;2023-08-06T01:52:08;1.50;;;1.40;;
31182;SDS011;17813;0.000;0.000;2023-08-06T01:54:41;1.67;;;1.57;;
31182;SDS011;17813;0.000;0.000;2023-08-06T01:57:09;2.87;;;1.60;;
31182;SDS011;17813;0.000;0.000;2023-08-06T01:59:39;2.47;;;1.60;;
31182;SDS011;17813;0.000;0.000;2023-08-06T02:02:11;2.73;;;1.50;;
31182;SDS011;17813;0.000;0.000;2023-08-06T02:04:41;1.87;;;1.40;;
31182;SDS011;17813;0.000;0.000;2023-08-06T02:07:09;1.80;;;1.70;;
31182;SDS011;17813;0.000;0.000;2023-08-06T02:09:44;2.77;;;1.70;;
31182;SDS011;17813;0.000;0.000;2023-08-06T02:12:14;1.80;;;1.70;;
31182;SDS011;17813;0.000;0.000;2023-08-06T02:14:44;3.07;;;1.63;;
31182;SDS011;17813;0.000;0.000;2023-08-06T02:17:11;2.47;;;1.70;;
31182;SDS011;17813;0.000;0.000;2023-08-06T02:19:40;1.70;;;1.60;;
31182;SDS011;17813;0.000;0.000;2023-08-06T02:22:12;1.83;;;1.50;;
31182;SDS011;17813;0.000;0.000;2023-08-06T02:24:41;2.17;;;1.97;;
31182;SDS011;17813;0.000;0.000;2023-08-06T02:27:10;2.10;;;1.87;;
31182;SDS011;17813;0.000;0.000;2023-08-06T02:29:43;2.70;;;1.70;;
31182;SDS011;17813;0.000;0.000;2023-08-06T02:32:16;1.67;;;1.53;;
31182;SDS011;17813;0.000;0.000;2023-08-06T02:34:45;3.90;;;1.73;;
31182;SDS011;17813;0.000;0.000;2023-08-06T02:37:19;4.20;;;1.60;;
31182;SDS011;17813;0.000;0.000;2023-08-06T02:39:51;2.00;;;1.70;;
31182;SDS011;17813;0.000;0.000;2023-08-06T02:42:24;1.77;;;1.47;;
31182;SDS011;17813;0.000;0.000;2023-08-06T02:44:54;1.97;;;1.77;;
31182;SDS011;17813;0.000;0.000;2023-08-06T02:47:26;2.27;;;1.60;;
31182;SDS011;17813;0.000;0.000;2023-08-06T02:49:56;2.30;;;1.80;;
31182;SDS011;17813;0.000;0.000;2023-08-06T02:52:24;1.70;;;1.60;;
31182;SDS011;17813;0.000;0.000;2023-08-06T02:54:56;1.87;;;1.57;;
31182;SDS011;17813;0.000;0.000;2023-08-06T02:57:29;2.07;;;1.87;;
31182;SDS011;17813;0.000;0.000;2023-08-06T02:59:59;1.80;;;1.70;;
31182;SDS011;17813;0.000;0.000;2023-08-06T03:02:32;1.93;;;1.80;;
31182;SDS011;17813;0.000;0.000;2023-08-06T03:05:07;1.73;;;1.63;;
31182;SDS011;17813;0.000;0.000;2023-08-06T03:07:35;2.97;;;1.70;;
31182;SDS011;17813;0.000;0.000;2023-08-06T03:10:11;3.63;;;1.80;;
31182;SDS011;17813;0.000;0.000;2023-08-06T03:12:40;1.83;;;1.73;;
31182;SDS011;17813;0.000;0.000;2023-08-06T03:15:09;2.00;;;1.90;;
31182;SDS011;17813;0.000;0.000;2023-08-06T03:17:43;2.10;;;1.90;;
31182;SDS011;17813;0.000;0.000;2023-08-06T03:20:12;1.70;;;1.60;;
31182;SDS011;17813;0.000;0.000;2023-08-06T03:22:45;1.70;;;1.60;;
31182;SDS011;17813;0.000;0.000;2023-08-06T03:25:13;1.90;;;1.80;;
31182;SDS011;17813;0.000;0.000;2023-08-06T03:27:41;1.77;;;1.67;;
31182;SDS011;17813;0.000;0.000;2023-08-06T03:30:09;3.47;;;1.77;;
31182;SDS011;17813;0.000;0.000;2023-08-06T03:32:38;1.87;;;1.60;;
31182;SDS011;17813;0.000;0.000;2023-08-06T03:35:08;3.50;;;1.90;;
31182;SDS011;17813;0.000;0.000;2023-08-06T03:37:40;2.50;;;1.60;;
31182;SDS011;17813;0.000;0.000;2023-08-06T03:40:12;1.70;;;1.60;;
31182;SDS011;17813;0.000;0.000;2023-08-06T03:42:45;2.17;;;1.87;;
31182;SDS011;17813;0.000;0.000;2023-08-06T03:45:17;4.57;;;2.00;;
31182;SDS011;17813;0.000;0.000;2023-08-06T03:47:48;3.70;;;1.90;;
31182;SDS011;17813;0.000;0.000;2023-08-06T03:50:23;4.17;;;1.90;;
31182;SDS011;17813;0.000;0.000;2023-08-06T03:52:53;4.13;;;2.10;;
31182;SDS011;17813;0.000;0.000;2023-08-06T03:55:26;2.20;;;2.00;;
31182;SDS011;17813;0.000;0.000;2023-08-06T03:57:56;2.83;;;2.00;;
31182;SDS011;17813;0.000;0.000;2023-08-06T04:00:27;6.53;;;2.40;;
31182;SDS011;17813;0.000;0.000;2023-08-06T04:03:02;3.67;;;2.10;;
31182;SDS011;17813;0.000;0.000;2023-08-06T04:05:32;3.53;;;2.07;;
31182;SDS011;17813;0.000;0.000;2023-08-06T04:08:01;2.10;;;1.80;;
31182;SDS011;17813;0.000;0.000;2023-08-06T04:10:31;2.23;;;2.03;;
31182;SDS011;17813;0.000;0.000;2023-08-06T04:13:04;2.27;;;1.93;;
31182;SDS011;17813;0.000;0.000;2023-08-06T04:15:35;3.73;;;1.90;;
31182;SDS011;17813;0.000;0.000;2023-08-06T04:18:11;2.37;;;1.90;;
31182;SDS011;17813;0.000;0.000;2023-08-06T04:20:44;4.73;;;2.00;;
31182;SDS011;17813;0.000;0.000;2023-08-06T04:23:15;3.60;;;1.80;;
31182;SDS011;17813;0.000;0.000;2023-08-06T04:25:48;2.00;;;1.80;;
31182;SDS011;17813;0.000;0.000;2023-08-06T04:28:19;2.53;;;2.00;;
31182;SDS011;17813;0.000;0.000;2023-08-06T04:30:48;1.80;;;1.70;;
31182;SDS011;17813;0.000;0.000;2023-08-06T04:33:22;3.27;;;2.00;;
31182;SDS011;17813;0.000;0.000;2023-08-06T04:35:55;2.17;;;1.90;;
31182;SDS011;17813;0.000;0.000;2023-08-06T04:38:26;2.00;;;1.80;;
31182;SDS011;17813;0.000;0.000;2023-08-06T04:41:01;3.10;;;2.07;;
31182;SDS011;17813;0.000;0.000;2023-08-06T04:43:33;2.30;;;2.10;;
31182;SDS011;17813;0.000;0.000;2023-08-06T04:46:05;1.90;;;1.80;;
31182;SDS011;17813;0.000;0.000;2023-08-06T04:48:33;2.63;;;1.70;;
31182;SDS011;17813;0.000;0.000;2023-08-06T04:51:04;6.57;;;2.27;;
31182;SDS011;17813;0.000;0.000;2023-08-06T04:53:35;1.97;;;1.77;;
31182;SDS011;17813;0.000;0.000;2023-08-06T04:56:08;2.93;;;1.87;;
31182;SDS011;17813;0.000;0.000;2023-08-06T04:58:40;2.50;;;1.80;;
31182;SDS011;17813;0.000;0.000;2023-08-06T05:01:14;1.97;;;1.80;;
31182;SDS011;17813;0.000;0.000;2023-08-06T05:03:46;3.30;;;1.80;;
31182;SDS011;17813;0.000;0.000;2023-08-06T05:06:16;2.30;;;2.10;;
31182;SDS011;17813;0.000;0.000;2023-08-06T05:08:47;2.10;;;1.77;;
31182;SDS011;17813;0.000;0.000;2023-08-06T05:11:17;2.63;;;2.00;;
31182;SDS011;17813;0.000;0.000;2023-08-06T05:13:48;3.40;;;1.90;;
31182;SDS011;17813;0.000;0.000;2023-08-06T05:16:21;5.17;;;1.90;;
31182;SDS011;17813;0.000;0.000;2023-08-06T05:18:53;2.37;;;2.10;;
31182;SDS011;17813;0.000;0.000;2023-08-06T05:21:27;1.90;;;1.80;;
31182;SDS011;17813;0.000;0.000;2023-08-06T05:23:54;2.10;;;1.90;;
31182;SDS011;17813;0.000;0.000;2023-08-06T05:26:24;1.97;;;1.80;;
31182;SDS011;17813;0.000;0.000;2023-08-06T05:28:54;3.63;;;2.07;;
31182;SDS011;17813;0.000;0.000;2023-08-06T05:31:30;1.80;;;1.70;;
31182;SDS011;17813;0.000;0.000;2023-08-06T05:34:09;2.00;;;1.77;;
31182;SDS011;17813;0.000;0.000;2023-08-06T05:36:44;2.00;;;1.90;;
31182;SDS011;17813;0.000;0.000;2023-08-06T05:39:15;2.47;;;1.90;;
31182;SDS011;17813;0.000;0.000;2023-08-06T05:41:49;3.43;;;1.73;;
31182;SDS011;17813;0.000;0.000;2023-08-06T05:44:23;2.13;;;2.00;;
31182;SDS011;17813;0.000;0.000;2023-08-06T05:46:54;2.30;;;2.00;;
31182;SDS011;17813;0.000;0.000;2023-08-06T05:49:25;3.10;;;1.90;;
31182;SDS011;17813;0.000;0.000;2023-08-06T05:51:55;2.60;;;1.93;;
31182;SDS011;17813;0.000;0.000;2023-08-06T05:54:26;2.50;;;2.30;;
31182;SDS011;17813;0.000;0.000;2023-08-06T05:57:03;2.23;;;2.07;;
31182;SDS011;17813;0.000;0.000;2023-08-06T05:59:34;3.00;;;2.23;;
31182;SDS011;17813;0.000;0.000;2023-08-06T06:02:11;2.67;;;2.20;;
31182;SDS011;17813;0.000;0.000;2023-08-06T06:04:41;2.97;;;2.70;;
31182;SDS011;17813;0.000;0.000;2023-08-06T06:07:19;2.63;;;2.43;;
31182;SDS011;17813;0.000;0.000;2023-08-06T06:10:01;2.50;;;2.30;;
31182;SDS011;17813;0.000;0.000;2023-08-06T06:12:33;2.73;;;2.20;;
31182;SDS011;17813;0.000;0.000;2023-08-06T06:15:08;2.60;;;2.40;;
31182;SDS011;17813;0.000;0.000;2023-08-06T06:17:38;2.93;;;2.20;;
31182;SDS011;17813;0.000;0.000;2023-08-06T06:20:15;2.93;;;2.30;;
31182;SDS011;17813;0.000;0.000;2023-08-06T06:22:48;2.67;;;2.33;;
31182;SDS011;17813;0.000;0.000;2023-08-06T06:25:17;2.60;;;2.40;;
31182;SDS011;17813;0.000;0.000;2023-08-06T06:27:54;2.40;;;2.20;;
31182;SDS011;17813;0.000;0.000;2023-08-06T06:30:25;2.67;;;2.30;;
31182;SDS011;17813;0.000;0.000;2023-08-06T06:32:53;2.53;;;2.33;;
31182;SDS011;17813;0.000;0.000;2023-08-06T06:35:26;2.57;;;2.37;;
31182;SDS011;17813;0.000;0.000;2023-08-06T06:37:56;3.50;;;2.37;;
31182;SDS011;17813;0.000;0.000;2023-08-06T06:40:31;2.37;;;2.17;;
31182;SDS011;17813;0.000;0.000;2023-08-06T06:43:09;2.57;;;2.37;;
31182;SDS011;17813;0.000;0.000;2023-08-06T06:45:37;2.77;;;2.50;;
31182;SDS011;17813;0.000;0.000;2023-08-06T06:48:05;3.63;;;2.40;;
31182;SDS011;17813;0.000;0.000;2023-08-06T06:50:38;2.80;;;2.57;;
31182;SDS011;17813;0.000;0.000;2023-08-06T06:53:06;2.53;;;2.33;;
31182;SDS011;17813;0.000;0.000;2023-08-06T06:55:43;2.50;;;2.30;;
31182;SDS011;17813;0.000;0.000;2023-08-06T06:58:19;2.50;;;2.30;;
31182;SDS011;17813;0.000;0.000;2023-08-06T07:00:52;2.90;;;2.30;;
31182;SDS011;17813;0.000;0.000;2023-08-06T07:03:29;2.53;;;2.33;;
31182;SDS011;17813;0.000;0.000;2023-08-06T07:06:02;2.20;;;2.10;;
31182;SDS011;17813;0.000;0.000;2023-08-06T07:08:36;3.37;;;2.43;;
31182;SDS011;17813;0.000;0.000;2023-08-06T07:11:07;2.23;;;2.13;;
31182;SDS011;17813;0.000;0.000;2023-08-06T07:13:37;2.50;;;2.30;;
31182;SDS011;17813;0.000;0.000;2023-08-06T07:16:10;2.50;;;2.30;;
31182;SDS011;17813;0.000;0.000;2023-08-06T07:18:45;2.70;;;2.43;;
31182;SDS011;17813;0.000;0.000;2023-08-06T07:21:22;2.20;;;2.10;;
31182;SDS011;17813;0.000;0.000;2023-08-06T07:23:53;2.60;;;2.40;;
31182;SDS011;17813;0.000;0.000;2023-08-06T07:26:26;4.10;;;2.33;;
31182;SDS011;17813;0.000;0.000;2023-08-06T07:28:54;2.50;;;2.30;;
31182;SDS011;17813;0.000;0.000;2023-08-06T07:31:27;2.60;;;2.40;;
31182;SDS011;17813;0.000;0.000;2023-08-06T07:33:58;2.53;;;2.33;;
31182;SDS011;17813;0.000;0.000;2023-08-06T07:36:30;2.30;;;2.20;;
31182;SDS011;17813;0.000;0.000;2023-08-06T07:39:05;2.83;;;2.30;;
31182;SDS011;17813;0.000;0.000;2023-08-06T07:41:36;2.60;;;2.33;;
31182;SDS011;17813;0.000;0.000;2023-08-06T07:44:11;2.70;;;2.27;;
31182;SDS011;17813;0.000;0.000;2023-08-06T07:46:50;2.57;;;2.37;;
31182;SDS011;17813;0.000;0.000;2023-08-06T07:49:19;2.57;;;2.30;;
31182;SDS011;17813;0.000;0.000;2023-08-06T07:51:51;2.60;;;2.40;;
31182;SDS011;17813;0.000;0.000;2023-08-06T07:54:34;2.67;;;2.17;;
31182;SDS011;17813;0.000;0.000;2023-08-06T07:57:10;2.23;;;2.03;;
31182;SDS011;17813;0.000;0.000;2023-08-06T07:59:38;2.93;;;2.40;;
31182;SDS011;17813;0.000;0.000;2023-08-06T08:02:10;2.83;;;2.20;;
31182;SDS011;17813;0.000;0.000;2023-08-06T08:04:41;2.80;;;2.23;;
31182;SDS011;17813;0.000;0.000;2023-08-06T08:07:10;6.07;;;1.90;;
31182;SDS011;17813;0.000;0.000;2023-08-06T08:09:46;2.93;;;2.10;;
31182;SDS011;17813;0.000;0.000;2023-08-06T08:12:25;2.33;;;2.13;;
31182;SDS011;17813;0.000;0.000;2023-08-06T08:14:56;2.47;;;2.13;;
31182;SDS011;17813;0.000;0.000;2023-08-06T08:17:29;2.37;;;2.17;;
31182;SDS011;17813;0.000;0.000;2023-08-06T08:20:00;2.60;;;2.20;;
31182;SDS011;17813;0.000;0.000;2023-08-06T08:22:34;2.87;;;2.10;;
31182;SDS011;17813;0.000;0.000;2023-08-06T08:25:09;2.33;;;2.13;;
31182;SDS011;17813;0.000;0.000;2023-08-06T08:27:42;2.15;;;1.70;;
31182;SDS011;17813;0.000;0.000;2023-08-06T08:30:11;2.10;;;1.90;;
31182;SDS011;17813;0.000;0.000;2023-08-06T08:32:41;2.08;;;1.85;;
31182;SDS011;17813;0.000;0.000;2023-08-06T08:35:20;2.38;;;2.00;;
31182;SDS011;17813;0.000;0.000;2023-08-06T08:37:59;2.22;;;2.03;;
31182;SDS011;17813;0.000;0.000;2023-08-06T08:40:32;2.28;;;1.90;;
31182;SDS011;17813;0.000;0.000;2023-08-06T08:43:04;2.20;;;2.00;;
31182;SDS011;17813;0.000;0.000;2023-08-06T08:45:32;2.53;;;1.80;;
31182;SDS011;17813;0.000;0.000;2023-08-06T08:48:11;2.10;;;1.83;;
31182;SDS011;17813;0.000;0.000;2023-08-06T08:50:46;2.83;;;1.80;;
31182;SDS011;17813;0.000;0.000;2023-08-06T08:53:24;3.88;;;1.80;;
31182;SDS011;17813;0.000;0.000;2023-08-06T08:55:55;1.60;;;1.50;;
31182;SDS011;17813;0.000;0.000;2023-08-06T08:58:31;1.83;;;1.73;;
31182;SDS011;17813;0.000;0.000;2023-08-06T09:01:04;1.80;;;1.70;;
31182;SDS011;17813;0.000;0.000;2023-08-06T09:03:37;1.70;;;1.60;;
31182;SDS011;17813;0.000;0.000;2023-08-06T09:06:12;1.65;;;1.55;;
31182;SDS011;17813;0.000;0.000;2023-08-06T09:08:51;2.00;;;1.70;;
31182;SDS011;17813;0.000;0.000;2023-08-06T09:11:36;1.73;;;1.63;;
31182;SDS011;17813;0.000;0.000;2023-08-06T09:14:11;1.90;;;1.70;;
31182;SDS011;17813;0.000;0.000;2023-08-06T09:16:42;2.00;;;1.58;;
31182;SDS011;17813;0.000;0.000;2023-08-06T09:19:17;1.83;;;1.63;;
31182;SDS011;17813;0.000;0.000;2023-08-06T09:21:51;1.70;;;1.60;;
31182;SDS011;17813;0.000;0.000;2023-08-06T09:24:28;1.83;;;1.73;;
31182;SDS011;17813;0.000;0.000;2023-08-06T09:27:00;1.75;;;1.65;;
31182;SDS011;17813;0.000;0.000;2023-08-06T09:29:43;2.10;;;1.80;;
31182;SDS011;17813;0.000;0.000;2023-08-06T09:32:12;1.88;;;1.70;;
31182;SDS011;17813;0.000;0.000;2023-08-06T09:34:43;1.95;;;1.52;;
31182;SDS011;17813;0.000;0.000;2023-08-06T09:37:18;1.80;;;1.70;;
31182;SDS011;17813;0.000;0.000;2023-08-06T09:39:55;2.00;;;1.88;;
31182;SDS011;17813;0.000;0.000;2023-08-06T09:42:29;1.65;;;1.55;;
31182;SDS011;17813;0.000;0.000;2023-08-06T09:45:06;1.80;;;1.60;;
31182;SDS011;17813;0.000;0.000;2023-08-06T09:47:37;1.90;;;1.80;;
31182;SDS011;17813;0.000;0.000;2023-08-06T09:50:17;1.70;;;1.60;;
31182;SDS011;17813;0.000;0.000;2023-08-06T09:52:53;2.78;;;1.77;;
31182;SDS011;17813;0.000;0.000;2023-08-06T09:55:23;2.05;;;1.60;;
31182;SDS011;17813;0.000;0.000;2023-08-06T09:58:09;1.75;;;1.65;;
31182;SDS011;17813;0.000;0.000;2023-08-06T10:00:45;1.83;;;1.70;;
31182;SDS011;17813;0.000;0.000;2023-08-06T10:03:15;2.22;;;1.80;;
31182;SDS011;17813;0.000;0.000;2023-08-06T10:05:47;2.50;;;1.63;;
31182;SDS011;17813;0.000;0.000;2023-08-06T10:08:26;1.98;;;1.88;;
31182;SDS011;17813;0.000;0.000;2023-08-06T10:11:02;1.67;;;1.58;;
31182;SDS011;17813;0.000;0.000;2023-08-06T10:13:36;1.48;;;1.38;;
31182;SDS011;17813;0.000;0.000;2023-08-06T10:16:07;2.42;;;1.60;;
31182;SDS011;17813;0.000;0.000;2023-08-06T10:18:36;4.75;;;1.60;;
31182;SDS011;17813;0.000;0.000;2023-08-06T10:21:23;1.50;;;1.40;;
31182;SDS011;17813;0.000;0.000;2023-08-06T10:23:57;3.42;;;1.67;;
31182;SDS011;17813;0.000;0.000;2023-08-06T10:26:30;1.80;;;1.70;;
31182;SDS011;17813;0.000;0.000;2023-08-06T10:32:11;1.80;;;1.70;;
31182;SDS011;17813;0.000;0.000;2023-08-06T10:37:35;3.10;;;1.80;;
31182;SDS011;17813;0.000;0.000;2023-08-06T10:40:07;1.63;;;1.52;;
31182;SDS011;17813;0.000;0.000;2023-08-06T10:42:39;1.67;;;1.58;;
31182;SDS011;17813;0.000;0.000;2023-08-06T10:45:17;2.03;;;1.40;;
31182;SDS011;17813;0.000;0.000;2023-08-06T10:47:47;1.92;;;1.70;;
31182;SDS011;17813;0.000;0.000;2023-08-06T10:50:26;3.38;;;1.63;;
31182;SDS011;17813;0.000;0.000;2023-08-06T10:53:05;1.60;;;1.50;;
31182;SDS011;17813;0.000;0.000;2023-08-06T10:55:34;1.48;;;1.38;;
31182;SDS011;17813;0.000;0.000;2023-08-06T10:58:05;2.15;;;1.60;;
31182;SDS011;17813;0.000;0.000;2023-08-06T11:00:37;1.55;;;1.45;;
31182;SDS011;17813;0.000;0.000;2023-08-06T11:03:08;1.70;;;1.60;;
31182;SDS011;17813;0.000;0.000;2023-08-06T11:05:41;1.50;;;1.40;;
31182;SDS011;17813;0.000;0.000;2023-08-06T11:08:26;1.52;;;1.40;;
31182;SDS011;17813;0.000;0.000;2023-08-06T11:11:09;1.48;;;1.38;;
31182;SDS011;17813;0.000;0.000;2023-08-06T11:13:42;1.95;;;1.50;;
31182;SDS011;17813;0.000;0.000;2023-08-06T11:16:24;1.90;;;1.80;;
31182;SDS011;17813;0.000;0.000;2023-08-06T11:18:58;1.45;;;1.35;;
31182;SDS011;17813;0.000;0.000;2023-08-06T11:21:30;1.58;;;1.40;;
31182;SDS011;17813;0.000;0.000;2023-08-06T11:24:06;1.70;;;1.60;;
31182;SDS011;17813;0.000;0.000;2023-08-06T11:26:40;1.48;;;1.38;;
31182;SDS011;17813;0.000;0.000;2023-08-06T11:29:17;1.73;;;1.63;;
31182;SDS011;17813;0.000;0.000;2023-08-06T11:32:03;1.63;;;1.45;;
31182;SDS011;17813;0.000;0.000;2023-08-06T11:34:39;1.50;;;1.40;;
31182;SDS011;17813;0.000;0.000;2023-08-06T11:37:21;1.60;;;1.50;;
31182;SDS011;17813;0.000;0.000;2023-08-06T11:40:00;1.60;;;1.50;;
31182;SDS011;17813;0.000;0.000;2023-08-06T11:42:39;1.58;;;1.48;;
31182;SDS011;17813;0.000;0.000;2023-08-06T11:45:09;1.77;;;1.52;;
31182;SDS011;17813;0.000;0.000;2023-08-06T11:47:49;1.50;;;1.40;;
31182;SDS011;17813;0.000;0.000;2023-08-06T11:50:28;1.60;;;1.50;;
31182;SDS011;17813;0.000;0.000;2023-08-06T11:53:07;1.65;;;1.50;;
31182;SDS011;17813;0.000;0.000;2023-08-06T11:55:42;1.42;;;1.33;;
31182;SDS011;17813;0.000;0.000;2023-08-06T11:58:16;1.58;;;1.42;;
31182;SDS011;17813;0.000;0.000;2023-08-06T12:00:50;2.95;;;1.60;;
31182;SDS011;17813;0.000;0.000;2023-08-06T12:03:23;1.38;;;1.35;;
31182;SDS011;17813;0.000;0.000;2023-08-06T12:06:00;2.00;;;1.77;;
31182;SDS011;17813;0.000;0.000;2023-08-06T12:08:33;3.85;;;1.48;;
31182;SDS011;17813;0.000;0.000;2023-08-06T12:11:08;2.50;;;1.30;;
31182;SDS011;17813;0.000;0.000;2023-08-06T12:13:36;1.48;;;1.38;;
31182;SDS011;17813;0.000;0.000;2023-08-06T12:16:08;1.95;;;1.50;;
31182;SDS011;17813;0.000;0.000;2023-08-06T12:18:46;1.80;;;1.30;;
31182;SDS011;17813;0.000;0.000;2023-08-06T12:21:16;1.52;;;1.40;;
31182;SDS011;17813;0.000;0.000;2023-08-06T12:23:48;2.00;;;1.60;;
31182;SDS011;17813;0.000;0.000;2023-08-06T12:26:21;3.30;;;1.40;;
31182;SDS011;17813;0.000;0.000;2023-08-06T12:28:48;2.22;;;1.40;;
31182;SDS011;17813;0.000;0.000;2023-08-06T12:31:18;2.58;;;1.63;;
31182;SDS011;17813;0.000;0.000;2023-08-06T12:33:52;3.70;;;1.80;;
31182;SDS011;17813;0.000;0.000;2023-08-06T12:36:31;1.77;;;1.55;;
31182;SDS011;17813;0.000;0.000;2023-08-06T12:39:10;1.58;;;1.30;;
31182;SDS011;17813;0.000;0.000;2023-08-06T12:41:45;1.63;;;1.50;;
31182;SDS011;17813;0.000;0.000;2023-08-06T12:44:14;1.60;;;1.38;;
31182;SDS011;17813;0.000;0.000;2023-08-06T12:46:45;1.60;;;1.50;;
31182;SDS011;17813;0.000;0.000;2023-08-06T12:49:32;1.23;;;1.13;;
31182;SDS011;17813;0.000;0.000;2023-08-06T12:52:09;1.27;;;1.13;;
31182;SDS011;17813;0.000;0.000;2023-08-06T12:54:46;1.98;;;1.15;;
31182;SDS011;17813;0.000;0.000;2023-08-06T12:57:24;1.88;;;1.30;;
31182;SDS011;17813;0.000;0.000;2023-08-06T13:00:03;2.03;;;1.10;;
31182;SDS011;17813;0.000;0.000;2023-08-06T13:02:41;1.08;;;1.02;;
31182;SDS011;17813;0.000;0.000;2023-08-06T13:05:11;1.23;;;1.13;;
31182;SDS011;17813;0.000;0.000;2023-08-06T13:07:50;1.27;;;1.17;;
31182;SDS011;17813;0.000;0.000;2023-08-06T13:10:25;1.95;;;1.48;;
31182;SDS011;17813;0.000;0.000;2023-08-06T13:13:00;2.05;;;1.40;;
31182;SDS011;17813;0.000;0.000;2023-08-06T13:15:29;1.20;;;1.10;;
31182;SDS011;17813;0.000;0.000;2023-08-06T13:18:02;1.88;;;1.40;;
31182;SDS011;17813;0.000;0.000;2023-08-06T13:20:39;1.40;;;1.30;;
31182;SDS011;17813;0.000;0.000;2023-08-06T13:23:11;1.50;;;1.40;;
31182;SDS011;17813;0.000;0.000;2023-08-06T13:25:54;1.48;;;1.20;;
31182;SDS011;17813;0.000;0.000;2023-08-06T13:28:25;1.50;;;1.30;;
31182;SDS011;17813;0.000;0.000;2023-08-06T13:30:59;1.70;;;1.60;;
31182;SDS011;17813;0.000;0.000;2023-08-06T13:33:30;1.60;;;1.50;;
31182;SDS011;17813;0.000;0.000;2023-08-06T13:36:11;1.35;;;1.25;;
31182;SDS011;17813;0.000;0.000;2023-08-06T13:38:42;1.58;;;1.40;;
31182;SDS011;17813;0.000;0.000;2023-08-06T13:41:15;1.92;;;1.40;;
31182;SDS011;17813;0.000;0.000;2023-08-06T13:43:44;1.50;;;1.40;;
31182;SDS011;17813;0.000;0.000;2023-08-06T13:46:17;1.63;;;1.52;;
31182;SDS011;17813;0.000;0.000;2023-08-06T13:48:52;1.45;;;1.35;;
31182;SDS011;17813;0.000;0.000;2023-08-06T13:51:30;1.40;;;1.30;;
31182;SDS011;17813;0.000;0.000;2023-08-06T13:54:01;1.40;;;1.30;;
31182;SDS011;17813;0.000;0.000;2023-08-06T13:56:34;1.50;;;1.35;;
31182;SDS011;17813;0.000;0.000;2023-08-06T13:59:13;2.28;;;1.33;;
31182;SDS011;17813;0.000;0.000;2023-08-06T14:01:45;1.52;;;1.27;;
31182;SDS011;17813;0.000;0.000;2023-08-06T14:04:16;1.60;;;1.50;;
31182;SDS011;17813;0.000;0.000;2023-08-06T14:06:54;1.40;;;1.30;;
31182;SDS011;17813;0.000;0.000;2023-08-06T14:09:31;1.65;;;1.30;;
31182;SDS011;17813;0.000;0.000;2023-08-06T14:12:07;2.22;;;1.58;;
31182;SDS011;17813;0.000;0.000;2023-08-06T14:14:44;1.67;;;1.23;;
31182;SDS011;17813;0.000;0.000;2023-08-06T14:17:26;1.27;;;1.17;;
31182;SDS011;17813;0.000;0.000;2023-08-06T14:20:08;1.85;;;1.30;;
31182;SDS011;17813;0.000;0.000;2023-08-06T14:22:38;1.30;;;1.20;;
31182;SDS011;17813;0.000;0.000;2023-08-06T14:25:10;1.40;;;1.30;;
31182;SDS011;17813;0.000;0.000;2023-08-06T14:27:41;1.55;;;1.45;;
31182;SDS011;17813;0.000;0.000;2023-08-06T14:30:19;2.47;;;1.60;;
31182;SDS011;17813;0.000;0.000;2023-08-06T14:32:54;1.98;;;1.45;;
31182;SDS011;17813;0.000;0.000;2023-08-06T14:35:24;3.30;;;1.50;;
31182;SDS011;17813;0.000;0.000;2023-08-06T14:37:54;1.50;;;1.40;;
31182;SDS011;17813;0.000;0.000;2023-08-06T14:40:28;2.10;;;1.80;;
31182;SDS011;17813;0.000;0.000;2023-08-06T14:43:08;2.78;;;2.03;;
31182;SDS011;17813;0.000;0.000;2023-08-06T14:45:39;3.35;;;2.85;;
31182;SDS011;17813;0.000;0.000;2023-08-06T14:48:19;2.65;;;1.90;;
31182;SDS011;17813;0.000;0.000;2023-08-06T14:50:56;2.83;;;2.20;;
31182;SDS011;17813;0.000;0.000;2023-08-06T14:53:39;2.00;;;1.77;;
31182;SDS011;17813;0.000;0.000;2023-08-06T14:56:17;2.45;;;1.60;;
31182;SDS011;17813;0.000;0.000;2023-08-06T14:58:50;1.65;;;1.50;;
31182;SDS011;17813;0.000;0.000;2023-08-06T15:01:20;2.63;;;1.50;;
31182;SDS011;17813;0.000;0.000;2023-08-06T15:03:59;1.55;;;1.23;;
31182;SDS011;17813;0.000;0.000;2023-08-06T15:06:34;1.55;;;1.20;;
31182;SDS011;17813;0.000;0.000;2023-08-06T15:09:07;1.45;;;0.90;;
31182;SDS011;17813;0.000;0.000;2023-08-06T15:11:47;0.95;;;0.85;;
31182;SDS011;17813;0.000;0.000;2023-08-06T15:14:23;1.73;;;0.93;;
31182;SDS011;17813;0.000;0.000;2023-08-06T15:17:01;1.48;;;1.02;;
31182;SDS011;17813;0.000;0.000;2023-08-06T15:19:33;1.20;;;1.10;;
31182;SDS011;17813;0.000;0.000;2023-08-06T15:22:07;1.33;;;1.23;;
31182;SDS011;17813;0.000;0.000;2023-08-06T15:24:50;1.25;;;0.90;;
31182;SDS011;17813;0.000;0.000;2023-08-06T15:27:28;0.90;;;0.70;;
31182;SDS011;17813;0.000;0.000;2023-08-06T15:30:09;2.10;;;0.80;;
31182;SDS011;17813;0.000;0.000;2023-08-06T15:32:46;0.80;;;0.80;;
31182;SDS011;17813;0.000;0.000;2023-08-06T15:35:17;0.90;;;0.80;;
31182;SDS011;17813;0.000;0.000;2023-08-06T15:37:50;0.60;;;0.60;;
31182;SDS011;17813;0.000;0.000;2023-08-06T15:40:21;2.05;;;0.70;;
31182;SDS011;17813;0.000;0.000;2023-08-06T15:43:03;0.70;;;0.70;;
31182;SDS011;17813;0.000;0.000;2023-08-06T15:45:32;1.15;;;1.02;;
31182;SDS011;17813;0.000;0.000;2023-08-06T15:48:04;1.88;;;1.10;;
31182;SDS011;17813;0.000;0.000;2023-08-06T15:50:36;1.20;;;1.00;;